Time;durP1;ratioP1;P1;durP2;ratioP2;P2;SDS_P1;SDS_P2;PMS_P1;PMS_P2;Temp;Humidity;BMP_temperature;BMP_pressure;BME280_temperature;BME280_humidity;BME280_pressure;Samples;Min_cycle;Max_cycle;Signal;HPM_P1;HPM_P2
2023/03/30 00:01:33;;;;;;;5.05;4.45;;;9.30;99.90;;;;;;6215651;23;20401;-85
2023/03/30 00:03:59;;;;;;;5.15;4.45;;;9.20;99.90;;;;;;6188359;23;20855;-86
2023/03/30 00:06:25;;;;;;;5.38;4.20;;;9.00;99.90;;;;;;6214681;23;20820;-84
2023/03/30 00:08:55;;;;;;;5.70;5.10;;;9.00;99.90;;;;;;6214641;23;20353;-81
2023/03/30 00:11:22;;;;;;;5.53;4.80;;;8.90;99.90;;;;;;6215257;23;20421;-83
2023/03/30 00:13:51;;;;;;;6.15;4.70;;;8.70;99.90;;;;;;6214879;23;20353;-84
2023/03/30 00:16:19;;;;;;;6.05;5.32;;;8.70;99.90;;;;;;6215109;23;20392;-84
2023/03/30 00:18:46;;;;;;;7.25;5.60;;;8.70;99.90;;;;;;6214901;23;20350;-84
2023/03/30 00:21:12;;;;;;;7.20;5.50;;;8.60;99.90;;;;;;6215413;23;20345;-83
2023/03/30 00:23:39;;;;;;;7.38;5.80;;;8.60;99.90;;;;;;6214880;23;20342;-86
2023/03/30 00:26:06;;;;;;;7.57;6.78;;;8.60;99.90;;;;;;6216938;23;20380;-87
2023/03/30 00:28:33;;;;;;;7.28;5.63;;;8.50;99.90;;;;;;6217056;23;20802;-85
2023/03/30 00:30:59;;;;;;;8.20;5.90;;;8.70;99.90;;;;;;6217762;23;20358;-84
2023/03/30 00:33:26;;;;;;;6.65;5.72;;;8.70;99.90;;;;;;6191042;23;20473;-80
2023/03/30 00:35:55;;;;;;;9.60;6.40;;;8.80;99.90;;;;;;6191864;23;20662;-85
2023/03/30 00:38:22;;;;;;;9.13;6.60;;;8.70;99.90;;;;;;6218049;23;20436;-89
2023/03/30 00:40:53;;;;;;;8.43;6.63;;;8.70;99.90;;;;;;6218126;23;20400;-84
2023/03/30 00:43:19;;;;;;;8.73;6.80;;;8.80;99.90;;;;;;6218517;23;20338;-84
2023/03/30 00:45:46;;;;;;;7.95;7.15;;;8.80;99.90;;;;;;6193483;23;20401;-88
2023/03/30 00:48:17;;;;;;;8.15;7.18;;;8.80;99.90;;;;;;6195547;23;20357;-83
2023/03/30 00:50:52;;;;;;;8.70;7.80;;;8.80;99.90;;;;;;6191635;23;20430;-87
2023/03/30 00:53:28;;;;;;;8.40;7.40;;;8.70;99.90;;;;;;6219418;23;20400;-83
2023/03/30 00:55:55;;;;;;;8.93;7.45;;;8.70;99.90;;;;;;6218564;23;20330;-85
2023/03/30 00:58:22;;;;;;;10.30;7.80;;;8.80;99.90;;;;;;6217572;23;20599;-87
2023/03/30 01:00:49;;;;;;;9.57;7.90;;;8.70;99.90;;;;;;6217851;23;20350;-86
2023/03/30 01:03:27;;;;;;;8.05;7.25;;;8.70;99.90;;;;;;6218978;23;20558;-83
2023/03/30 01:05:54;;;;;;;8.80;7.90;;;8.70;99.90;;;;;;6238458;23;20380;-82
2023/03/30 01:08:22;;;;;;;9.27;8.23;;;8.70;99.90;;;;;;6212234;23;20342;-82
2023/03/30 01:10:51;;;;;;;9.60;8.60;;;8.70;99.90;;;;;;6218322;23;20696;-86
2023/03/30 01:13:18;;;;;;;10.70;8.95;;;8.70;99.90;;;;;;6189397;23;20354;-84
2023/03/30 01:16:06;;;;;;;10.05;9.05;;;8.70;99.90;;;;;;6215926;23;20341;-84
2023/03/30 01:18:43;;;;;;;9.68;8.25;;;8.60;99.90;;;;;;6216010;23;20338;-83
2023/03/30 01:21:22;;;;;;;10.07;8.75;;;8.60;99.90;;;;;;6216359;23;20342;-84
2023/03/30 01:24:06;;;;;;;12.32;8.38;;;8.70;99.90;;;;;;6216671;23;20365;-88
2023/03/30 01:26:55;;;;;;;9.80;8.80;;;8.70;99.90;;;;;;6216447;23;20405;-85
2023/03/30 01:29:35;;;;;;;11.10;8.63;;;8.70;99.90;;;;;;6216548;23;20349;-82
2023/03/30 01:32:25;;;;;;;9.10;8.20;;;8.80;99.90;;;;;;6216960;23;20770;-85
2023/03/30 01:35:22;;;;;;;10.77;8.85;;;8.80;99.90;;;;;;6219219;23;20350;-85
2023/03/30 01:37:51;;;;;;;9.95;9.00;;;8.80;99.90;;;;;;6154447;23;20441;-88
2023/03/30 01:40:28;;;;;;;11.18;9.15;;;8.80;99.90;;;;;;6219231;23;20856;-84
2023/03/30 01:43:17;;;;;;;10.38;9.38;;;8.90;99.90;;;;;;6216580;23;20810;-81
2023/03/30 01:45:54;;;;;;;11.43;9.77;;;8.70;99.90;;;;;;6216104;23;20456;-86
2023/03/30 01:48:32;;;;;;;10.77;9.68;;;8.70;99.90;;;;;;6216332;23;20346;-85
2023/03/30 01:51:10;;;;;;;10.23;9.23;;;8.70;99.90;;;;;;6215661;23;20370;-87
2023/03/30 01:53:55;;;;;;;10.32;8.77;;;8.80;99.90;;;;;;6216398;23;20346;-83
2023/03/30 01:56:31;;;;;;;10.18;8.32;;;8.90;99.90;;;;;;6216372;23;20374;-87
2023/03/30 01:59:04;;;;;;;10.00;9.03;;;9.00;99.90;;;;;;6215688;23;20338;-86
2023/03/30 02:01:32;;;;;;;10.38;9.27;;;9.00;99.90;;;;;;6215800;23;20789;-83
2023/03/30 02:03:59;;;;;;;9.32;8.45;;;9.10;99.90;;;;;;6216441;23;20537;-86
2023/03/30 02:06:37;;;;;;;9.80;8.80;;;9.10;99.90;;;;;;6217257;23;20346;-83
2023/03/30 02:09:04;;;;;;;9.93;9.00;;;9.10;99.90;;;;;;6216717;23;20334;-82
2023/03/30 02:11:31;;;;;;;10.60;9.45;;;9.00;99.90;;;;;;6216695;23;20429;-85
2023/03/30 02:14:00;;;;;;;9.63;8.73;;;9.00;99.90;;;;;;6164040;23;20389;-85
2023/03/30 02:16:50;;;;;;;10.63;8.85;;;9.00;99.90;;;;;;6217064;23;20342;-81
2023/03/30 02:19:17;;;;;;;10.35;9.23;;;9.00;99.90;;;;;;6198136;23;20460;-88
2023/03/30 02:21:44;;;;;;;10.60;8.65;;;9.00;99.90;;;;;;6189703;23;20362;-84
2023/03/30 02:24:18;;;;;;;10.53;9.43;;;9.10;99.90;;;;;;6216329;23;20453;-83
2023/03/30 02:26:51;;;;;;;10.18;9.07;;;9.00;99.90;;;;;;6215678;23;20346;-85
2023/03/30 02:29:19;;;;;;;9.98;8.75;;;9.00;99.90;;;;;;6216087;23;20445;-86
2023/03/30 02:31:47;;;;;;;9.70;8.73;;;9.20;99.90;;;;;;6215767;23;20661;-82
2023/03/30 02:34:44;;;;;;;10.68;9.30;;;9.10;99.90;;;;;;6215384;23;20334;-86
2023/03/30 02:37:34;;;;;;;10.30;9.07;;;9.10;99.90;;;;;;6215441;23;20386;-87
2023/03/30 02:40:14;;;;;;;11.68;9.55;;;9.00;99.90;;;;;;6188601;23;20366;-87
2023/03/30 02:42:49;;;;;;;9.20;8.30;;;9.10;99.90;;;;;;6215939;23;20342;-83
2023/03/30 02:45:34;;;;;;;10.63;9.00;;;9.20;99.90;;;;;;6215922;23;20365;-86
2023/03/30 02:48:26;;;;;;;9.97;8.70;;;9.30;99.90;;;;;;6215610;23;20343;-85
2023/03/30 02:51:24;;;;;;;9.30;8.40;;;9.30;99.90;;;;;;6140321;23;20357;-84
2023/03/30 02:54:16;;;;;;;10.43;8.95;;;9.40;99.90;;;;;;6215126;23;20389;-86
2023/03/30 02:56:53;;;;;;;11.05;8.93;;;9.20;99.90;;;;;;6215529;23;20349;-81
2023/03/30 02:59:46;;;;;;;10.63;9.15;;;9.20;99.90;;;;;;6216169;23;20346;-81
2023/03/30 03:02:18;;;;;;;10.00;9.10;;;9.20;99.90;;;;;;6195094;23;20377;-82
2023/03/30 03:04:46;;;;;;;9.90;8.95;;;9.10;99.90;;;;;;6216174;23;20416;-85
2023/03/30 03:07:13;;;;;;;11.27;9.65;;;9.20;99.90;;;;;;6215025;23;20618;-81
2023/03/30 03:09:39;;;;;;;10.27;9.10;;;9.20;99.90;;;;;;6212221;23;20440;-84
2023/03/30 03:12:05;;;;;;;10.50;8.68;;;9.30;99.90;;;;;;6216150;23;20338;-84
2023/03/30 03:14:31;;;;;;;9.02;8.13;;;9.30;99.90;;;;;;6235185;23;20605;-86
2023/03/30 03:16:57;;;;;;;11.17;8.50;;;9.40;99.90;;;;;;6245566;23;20394;-85
2023/03/30 03:19:23;;;;;;;10.37;8.80;;;9.30;99.90;;;;;;6246035;23;20360;-82
2023/03/30 03:21:48;;;;;;;9.52;8.55;;;9.40;99.90;;;;;;6245437;23;20369;-85
2023/03/30 03:24:16;;;;;;;9.30;8.30;;;9.40;99.90;;;;;;6245761;23;20362;-85
2023/03/30 03:26:42;;;;;;;10.25;8.98;;;9.40;99.90;;;;;;6245410;23;20736;-82
2023/03/30 03:29:08;;;;;;;9.48;8.57;;;9.40;99.90;;;;;;6219147;23;20383;-83
2023/03/30 03:31:34;;;;;;;9.77;8.50;;;9.40;99.90;;;;;;6245824;23;20364;-84
2023/03/30 03:34:00;;;;;;;9.82;8.60;;;9.40;99.90;;;;;;6245309;23;20355;-85
2023/03/30 03:36:27;;;;;;;8.85;8.05;;;9.50;99.90;;;;;;6246085;23;20336;-85
2023/03/30 03:38:53;;;;;;;9.20;8.20;;;9.50;99.90;;;;;;6245985;23;20344;-82
2023/03/30 03:41:18;;;;;;;10.07;8.30;;;9.50;99.90;;;;;;6246821;23;20348;-86
2023/03/30 03:43:44;;;;;;;9.10;8.20;;;9.40;99.90;;;;;;6245620;23;20707;-84
2023/03/30 03:46:10;;;;;;;8.98;8.07;;;9.50;99.90;;;;;;6246021;23;20367;-83
2023/03/30 03:48:38;;;;;;;9.30;8.23;;;9.50;99.90;;;;;;6218986;23;20846;-83
2023/03/30 03:51:04;;;;;;;8.93;7.67;;;9.40;99.90;;;;;;6246274;23;20345;-85
2023/03/30 03:53:30;;;;;;;10.80;7.77;;;9.50;99.90;;;;;;6246010;23;20422;-83
2023/03/30 03:55:56;;;;;;;8.77;7.87;;;9.50;99.90;;;;;;6246162;23;20647;-85
2023/03/30 03:58:22;;;;;;;9.07;8.13;;;9.50;99.90;;;;;;6245796;23;20355;-86
2023/03/30 04:00:48;;;;;;;8.93;7.83;;;9.50;99.90;;;;;;6245760;23;20435;-85
2023/03/30 04:03:14;;;;;;;10.02;7.90;;;9.40;99.90;;;;;;6245944;23;20359;-83
2023/03/30 04:05:40;;;;;;;9.17;8.23;;;9.40;99.90;;;;;;6218739;23;20372;-83
2023/03/30 04:08:09;;;;;;;10.27;8.15;;;9.30;99.90;;;;;;6218218;23;20376;-83
2023/03/30 04:10:36;;;;;;;8.63;7.70;;;9.20;99.90;;;;;;6245247;23;20343;-83
2023/03/30 04:13:02;;;;;;;8.82;7.70;;;9.10;99.90;;;;;;6246126;23;20364;-84
2023/03/30 04:15:28;;;;;;;9.67;8.67;;;9.10;99.90;;;;;;6247449;23;20371;-85
2023/03/30 04:17:57;;;;;;;10.20;8.37;;;9.10;99.90;;;;;;6247713;23;20348;-79
2023/03/30 04:20:27;;;;;;;8.13;7.32;;;9.10;99.90;;;;;;6248374;23;20807;-85
2023/03/30 04:22:53;;;;;;;8.60;7.63;;;9.20;99.90;;;;;;6248448;23;20840;-83
2023/03/30 04:25:21;;;;;;;8.30;7.40;;;9.30;99.90;;;;;;6220922;23;20363;-85
2023/03/30 04:27:53;;;;;;;8.63;7.38;;;9.30;99.90;;;;;;6248019;23;20399;-82
2023/03/30 04:30:21;;;;;;;8.63;7.50;;;9.40;99.90;;;;;;6261842;22;20340;-85
2023/03/30 04:32:53;;;;;;;8.85;7.50;;;9.50;99.90;;;;;;6270590;22;20372;-87
2023/03/30 04:35:19;;;;;;;7.67;6.97;;;9.50;99.90;;;;;;6237160;23;20345;-85
2023/03/30 04:37:45;;;;;;;8.07;7.28;;;9.60;99.90;;;;;;6246698;23;20341;-85
2023/03/30 04:40:12;;;;;;;8.15;7.13;;;9.60;99.90;;;;;;6247438;23;20663;-84
2023/03/30 04:42:38;;;;;;;9.90;7.10;;;9.50;99.90;;;;;;6247543;23;20375;-84
2023/03/30 04:45:08;;;;;;;8.02;7.05;;;9.50;99.90;;;;;;6220228;23;20368;-85
2023/03/30 04:47:34;;;;;;;10.43;7.20;;;9.60;99.90;;;;;;6251790;23;20344;-83
2023/03/30 04:50:01;;;;;;;8.20;7.03;;;9.50;99.90;;;;;;6220498;23;20661;-85
2023/03/30 04:52:27;;;;;;;12.05;7.53;;;9.50;99.90;;;;;;6248386;23;20337;-83
2023/03/30 04:54:53;;;;;;;8.70;7.00;;;9.50;99.90;;;;;;6249924;23;20332;-86
2023/03/30 04:57:20;;;;;;;8.32;7.30;;;9.50;99.90;;;;;;6254833;23;20796;-82
2023/03/30 04:59:52;;;;;;;8.60;6.95;;;9.60;99.90;;;;;;6227381;23;20356;-79
2023/03/30 05:02:20;;;;;;;8.02;7.22;;;9.50;99.90;;;;;;6250475;23;20336;-82
2023/03/30 05:04:45;;;;;;;8.32;7.20;;;9.40;99.90;;;;;;6250139;23;20356;-83
2023/03/30 05:07:15;;;;;;;8.50;7.32;;;9.40;99.90;;;;;;6225654;23;20353;-84
2023/03/30 05:09:41;;;;;;;9.10;7.68;;;9.30;99.90;;;;;;6251812;23;20332;-83
2023/03/30 05:12:07;;;;;;;8.15;6.93;;;9.30;99.90;;;;;;6223765;23;20363;-87
2023/03/30 05:14:33;;;;;;;7.38;6.45;;;9.40;99.90;;;;;;6248537;23;20421;-82
2023/03/30 05:17:00;;;;;;;7.90;6.75;;;9.50;99.90;;;;;;6248405;23;20344;-84
2023/03/30 05:19:29;;;;;;;8.23;6.72;;;9.50;99.90;;;;;;6249204;23;20403;-83
2023/03/30 05:21:56;;;;;;;7.85;6.65;;;9.60;99.90;;;;;;6250542;23;20340;-85
2023/03/30 05:24:22;;;;;;;8.57;6.78;;;9.60;99.90;;;;;;6247553;23;20679;-86
2023/03/30 05:26:47;;;;;;;7.33;6.63;;;9.70;99.90;;;;;;6247536;23;20348;-84
2023/03/30 05:29:13;;;;;;;7.72;6.40;;;9.70;99.90;;;;;;6221025;23;20348;-87
2023/03/30 05:31:39;;;;;;;7.03;5.80;;;9.80;99.90;;;;;;6247106;23;20387;-84
2023/03/30 05:34:05;;;;;;;7.73;5.77;;;9.80;99.90;;;;;;6247814;23;20363;-86
2023/03/30 05:36:31;;;;;;;9.98;6.70;;;9.80;99.90;;;;;;6252858;23;20427;-85
2023/03/30 05:38:57;;;;;;;7.00;6.30;;;9.80;99.90;;;;;;6225790;23;20402;-85
2023/03/30 05:41:22;;;;;;;8.32;6.13;;;9.80;99.90;;;;;;6223921;23;20348;-83
2023/03/30 05:43:48;;;;;;;9.00;5.97;;;9.70;99.90;;;;;;6223269;23;20371;-84
2023/03/30 05:46:15;;;;;;;7.00;6.00;;;9.70;99.90;;;;;;6249349;23;20372;-87
2023/03/30 05:48:42;;;;;;;7.07;6.32;;;9.80;99.90;;;;;;6224215;23;20830;-81
2023/03/30 05:51:08;;;;;;;7.65;6.05;;;9.80;99.90;;;;;;6222833;23;20344;-83
2023/03/30 05:53:35;;;;;;;7.53;6.43;;;9.90;99.90;;;;;;6251937;23;20344;-82
2023/03/30 05:56:01;;;;;;;6.80;6.10;;;9.80;99.90;;;;;;6250273;23;20336;-82
2023/03/30 05:58:29;;;;;;;7.30;6.23;;;9.70;99.90;;;;;;6251563;23;20667;-83
2023/03/30 06:00:59;;;;;;;8.02;6.05;;;10.00;99.90;;;;;;6252496;23;20340;-83
2023/03/30 06:03:25;;;;;;;7.97;5.60;;;9.90;99.90;;;;;;6250670;23;20340;-81
2023/03/30 06:05:52;;;;;;;6.90;6.20;;;10.00;99.90;;;;;;6250150;23;20374;-86
2023/03/30 06:08:19;;;;;;;8.07;6.07;;;10.10;99.90;;;;;;6223491;23;20904;-82
2023/03/30 06:10:52;;;;;;;6.75;5.65;;;10.20;99.90;;;;;;6249947;23;20403;-86
2023/03/30 06:13:18;;;;;;;9.45;6.30;;;10.40;99.90;;;;;;6251127;23;20371;-82
2023/03/30 06:15:44;;;;;;;8.13;5.40;;;10.20;99.90;;;;;;6226292;23;20427;-83
2023/03/30 06:18:12;;;;;;;6.88;5.63;;;10.40;99.90;;;;;;6254347;23;20394;-82
2023/03/30 06:20:37;;;;;;;7.28;5.47;;;10.40;99.90;;;;;;6255351;23;20421;-80
2023/03/30 06:23:03;;;;;;;6.28;5.40;;;10.50;99.90;;;;;;6228093;23;20534;-81
2023/03/30 06:25:29;;;;;;;7.13;5.47;;;10.60;99.90;;;;;;6254069;23;20772;-81
2023/03/30 06:27:56;;;;;;;7.50;5.65;;;10.70;99.90;;;;;;6225899;23;20349;-80
2023/03/30 06:30:22;;;;;;;6.27;5.27;;;10.70;99.90;;;;;;6252839;23;20645;-80
2023/03/30 06:32:48;;;;;;;6.40;5.25;;;10.60;99.90;;;;;;6230246;23;20380;-81
2023/03/30 06:35:14;;;;;;;7.63;5.73;;;10.70;99.90;;;;;;6227519;23;20353;-86
2023/03/30 06:37:41;;;;;;;6.47;5.15;;;10.80;99.90;;;;;;6224725;23;20345;-82
2023/03/30 06:40:12;;;;;;;7.25;5.30;;;11.00;99.90;;;;;;6251574;23;20337;-83
2023/03/30 06:42:39;;;;;;;7.00;5.57;;;11.00;99.90;;;;;;6255886;23;20336;-82
2023/03/30 06:45:06;;;;;;;6.95;5.45;;;10.90;99.90;;;;;;6229657;23;20551;-82
2023/03/30 06:47:32;;;;;;;7.32;5.05;;;10.90;99.90;;;;;;6254621;23;20474;-80
2023/03/30 06:49:57;;;;;;;7.20;5.53;;;10.90;99.90;;;;;;6257377;23;20341;-82
2023/03/30 06:52:23;;;;;;;7.90;5.07;;;10.80;99.90;;;;;;6255603;23;20402;-82
2023/03/30 06:54:48;;;;;;;8.68;5.50;;;10.90;99.90;;;;;;6254744;23;20550;-85
2023/03/30 06:57:14;;;;;;;6.43;5.72;;;10.90;99.90;;;;;;6227061;23;20479;-81
2023/03/30 06:59:40;;;;;;;7.90;5.57;;;11.00;99.90;;;;;;6252516;23;20344;-81
2023/03/30 07:02:06;;;;;;;6.37;5.17;;;11.10;99.90;;;;;;6224491;23;20414;-84
2023/03/30 07:04:32;;;;;;;6.47;5.07;;;11.50;99.90;;;;;;6251258;23;20417;-85
2023/03/30 07:06:58;;;;;;;8.10;5.40;;;11.70;99.90;;;;;;6222303;23;20352;-86
2023/03/30 07:09:25;;;;;;;7.55;5.00;;;11.90;99.90;;;;;;6221708;23;20803;-85
2023/03/30 07:11:51;;;;;;;8.02;5.40;;;11.80;99.90;;;;;;6247003;23;20846;-83
2023/03/30 07:14:17;;;;;;;7.07;4.90;;;11.40;99.90;;;;;;6249367;23;20348;-86
2023/03/30 07:16:42;;;;;;;7.22;5.00;;;11.50;99.90;;;;;;6250235;23;20341;-86
2023/03/30 07:19:08;;;;;;;8.63;5.23;;;11.70;99.90;;;;;;6259481;23;20344;-80
2023/03/30 07:21:34;;;;;;;6.20;4.63;;;11.80;99.90;;;;;;6264095;23;20407;-87
2023/03/30 07:24:00;;;;;;;7.15;4.50;;;12.20;99.90;;;;;;6252214;23;20609;-82
2023/03/30 07:26:27;;;;;;;6.47;4.57;;;12.60;99.90;;;;;;6251348;23;20337;-86
2023/03/30 07:28:55;;;;;;;6.85;4.78;;;12.80;99.90;;;;;;6244568;23;20348;-82
2023/03/30 07:31:20;;;;;;;6.57;4.90;;;13.30;99.90;;;;;;6218448;23;20344;-80
2023/03/30 07:33:46;;;;;;;5.35;4.15;;;13.70;99.90;;;;;;6244546;23;20366;-85
2023/03/30 07:36:16;;;;;;;6.53;3.58;;;15.00;99.90;;;;;;6243785;23;20340;-84
2023/03/30 07:38:41;;;;;;;4.65;3.70;;;15.40;99.90;;;;;;6218772;23;20356;-82
2023/03/30 07:41:11;;;;;;;6.37;4.10;;;15.70;99.90;;;;;;6221092;23;20352;-83
2023/03/30 07:43:39;;;;;;;6.07;4.10;;;15.50;99.90;;;;;;6221331;23;20424;-84
2023/03/30 07:46:08;;;;;;;6.05;3.65;;;16.00;99.90;;;;;;6219098;23;20455;-86
2023/03/30 07:48:35;;;;;;;6.30;3.22;;;17.00;99.90;;;;;;6220726;23;20375;-85
2023/03/30 07:51:12;;;;;;;6.50;3.42;;;18.00;99.90;;;;;;6222601;23;20431;-84
2023/03/30 07:53:39;;;;;;;5.32;3.58;;;18.70;99.90;;;;;;6220656;23;20703;-82
2023/03/30 07:56:07;;;;;;;6.43;3.50;;;18.60;99.90;;;;;;6221170;23;20486;-86
2023/03/30 07:58:32;;;;;;;6.43;3.17;;;19.10;99.90;;;;;;6220896;23;20430;-86
2023/03/30 08:01:01;;;;;;;5.60;3.50;;;19.10;99.90;;;;;;6220029;23;20412;-83
2023/03/30 08:03:28;;;;;;;6.22;3.50;;;18.40;99.90;;;;;;6220531;23;20345;-81
2023/03/30 08:05:54;;;;;;;5.07;3.10;;;18.00;99.90;;;;;;6218399;23;20696;-83
2023/03/30 08:08:21;;;;;;;8.75;3.30;;;18.10;99.90;;;;;;6220820;23;20705;-84
2023/03/30 08:10:48;;;;;;;6.47;3.50;;;17.90;99.90;;;;;;6220316;23;20371;-83
2023/03/30 08:13:13;;;;;;;4.60;2.92;;;18.60;99.90;;;;;;6247597;23;20360;-83
2023/03/30 08:15:40;;;;;;;6.82;3.30;;;18.90;99.90;;;;;;6195699;23;20731;-83
2023/03/30 08:18:06;;;;;;;7.03;3.33;;;18.80;99.90;;;;;;6219692;23;20363;-84
2023/03/30 08:20:37;;;;;;;4.70;3.10;;;18.90;99.90;;;;;;6246266;23;20350;-86
2023/03/30 08:23:09;;;;;;;5.10;2.90;;;18.90;99.90;;;;;;6220891;23;20356;-83
2023/03/30 08:25:35;;;;;;;4.32;2.80;;;19.20;99.90;;;;;;6245288;23;20380;-83
2023/03/30 08:28:01;;;;;;;8.52;3.60;;;18.70;99.90;;;;;;6219881;23;20367;-84
2023/03/30 08:30:27;;;;;;;7.53;3.25;;;19.30;99.90;;;;;;6246864;23;20340;-86
2023/03/30 08:32:53;;;;;;;5.88;3.17;;;18.30;99.90;;;;;;6246769;23;20348;-83
2023/03/30 08:35:20;;;;;;;6.43;3.00;;;18.30;99.90;;;;;;6217919;23;20739;-82
2023/03/30 08:37:46;;;;;;;8.15;3.30;;;18.10;99.90;;;;;;6219917;23;20348;-85
2023/03/30 08:40:14;;;;;;;9.90;3.15;;;18.10;99.90;;;;;;6219590;23;20807;-83
2023/03/30 08:43:01;;;;;;;5.10;2.88;;;17.90;99.90;;;;;;6247378;23;20345;-83
2023/03/30 08:45:35;;;;;;;5.63;3.07;;;16.90;99.90;;;;;;6240401;23;20367;-83
2023/03/30 08:48:02;;;;;;;8.23;3.70;;;16.70;99.90;;;;;;6218800;23;20360;-84
2023/03/30 08:50:32;;;;;;;4.70;2.90;;;16.80;99.90;;;;;;6220219;23;20353;-82
2023/03/30 08:53:03;;;;;;;6.00;3.15;;;16.80;99.90;;;;;;6245375;23;20375;-82
2023/03/30 08:55:40;;;;;;;7.78;3.38;;;16.40;99.90;;;;;;6242614;23;20663;-84
2023/03/30 08:58:43;;;;;;;8.68;3.20;;;16.50;99.90;;;;;;6218674;23;20364;-86
2023/03/30 09:01:24;;;;;;;8.50;3.28;;;16.60;99.90;;;;;;6216256;23;20395;-82
2023/03/30 09:04:08;;;;;;;7.22;3.30;;;16.30;99.90;;;;;;6216698;23;20348;-84
2023/03/30 09:06:48;;;;;;;7.40;3.20;;;16.00;99.90;;;;;;6214011;23;20414;-84
2023/03/30 09:09:18;;;;;;;8.35;3.08;;;16.10;99.90;;;;;;6244167;23;20345;-83
2023/03/30 09:11:52;;;;;;;7.90;3.53;;;16.20;99.90;;;;;;6217611;23;20885;-82
2023/03/30 09:14:32;;;;;;;6.95;3.10;;;16.20;99.90;;;;;;6243313;23;20459;-82
2023/03/30 09:17:10;;;;;;;8.00;3.38;;;15.90;99.90;;;;;;6204937;23;20357;-82
2023/03/30 09:19:56;;;;;;;8.85;3.50;;;16.20;99.90;;;;;;6218215;23;20348;-83
2023/03/30 09:22:33;;;;;;;7.18;3.50;;;15.80;99.90;;;;;;6218036;23;20465;-84
2023/03/30 09:25:00;;;;;;;9.10;3.88;;;15.60;99.90;;;;;;6218432;23;20425;-85
2023/03/30 09:27:54;;;;;;;7.95;3.83;;;15.70;99.90;;;;;;6245196;23;20674;-84
2023/03/30 09:30:30;;;;;;;6.80;3.83;;;15.70;99.90;;;;;;6217043;23;20361;-82
2023/03/30 09:33:11;;;;;;;7.43;3.47;;;15.70;99.90;;;;;;6218923;23;20407;-82
2023/03/30 09:35:41;;;;;;;6.72;3.60;;;15.80;99.90;;;;;;6219100;23;20345;-83
2023/03/30 09:38:12;;;;;;;8.25;3.42;;;15.90;99.90;;;;;;6219637;23;20352;-85
2023/03/30 09:41:06;;;;;;;8.38;3.33;;;16.30;99.90;;;;;;6240757;23;20423;-86
2023/03/30 09:43:37;;;;;;;7.35;3.45;;;16.50;99.90;;;;;;6221227;23;20345;-85
2023/03/30 09:46:05;;;;;;;9.55;3.22;;;16.90;99.90;;;;;;6248769;23;20418;-83
2023/03/30 09:48:43;;;;;;;8.32;3.05;;;17.40;99.90;;;;;;6220961;23;20359;-83
2023/03/30 09:51:35;;;;;;;6.17;2.90;;;17.40;99.90;;;;;;6221269;23;20356;-82
2023/03/30 09:54:05;;;;;;;8.18;3.28;;;17.40;99.90;;;;;;6246105;23;20484;-86
2023/03/30 09:56:43;;;;;;;7.90;3.78;;;17.10;99.90;;;;;;6222856;23;20356;-85
2023/03/30 09:59:33;;;;;;;8.93;3.60;;;17.00;99.90;;;;;;6221704;23;20354;-85
2023/03/30 10:02:11;;;;;;;8.63;3.38;;;16.50;99.90;;;;;;6224392;23;20352;-84
2023/03/30 10:04:52;;;;;;;7.28;3.40;;;16.50;99.90;;;;;;6226319;23;20368;-84
2023/03/30 10:07:27;;;;;;;7.88;3.53;;;16.90;99.90;;;;;;6248624;23;20422;-83
2023/03/30 10:09:54;;;;;;;7.83;3.43;;;17.00;99.90;;;;;;6253886;23;20364;-81
2023/03/30 10:12:23;;;;;;;9.10;3.20;;;17.30;99.90;;;;;;6235096;23;20368;-81
2023/03/30 10:15:01;;;;;;;7.88;3.10;;;17.30;99.90;;;;;;6259928;23;20348;-82
2023/03/30 10:17:29;;;;;;;8.00;3.20;;;17.20;99.90;;;;;;6252194;23;20375;-85
2023/03/30 10:20:18;;;;;;;8.07;3.05;;;17.10;99.90;;;;;;6253415;23;20339;-83
2023/03/30 10:23:14;;;;;;;8.82;3.40;;;17.50;99.90;;;;;;6225705;23;20352;-82
2023/03/30 10:25:42;;;;;;;8.57;3.45;;;17.50;99.90;;;;;;6247364;23;20451;-82
2023/03/30 10:28:24;;;;;;;7.20;2.90;;;17.50;99.90;;;;;;6217225;23;20442;-83
2023/03/30 10:31:15;;;;;;;7.80;3.30;;;17.60;99.90;;;;;;6246184;23;20478;-83
2023/03/30 10:33:43;;;;;;;8.35;3.10;;;17.70;99.90;;;;;;6216782;23;20375;-85
2023/03/30 10:36:12;;;;;;;7.73;3.20;;;18.00;99.90;;;;;;6218017;23;20368;-87
2023/03/30 10:38:39;;;;;;;7.68;3.10;;;18.00;99.90;;;;;;6242717;23;20426;-84
2023/03/30 10:41:21;;;;;;;7.50;3.20;;;17.80;99.90;;;;;;6244834;23;20344;-84
2023/03/30 10:43:48;;;;;;;11.77;3.70;;;17.70;99.90;;;;;;6244396;23;20729;-83
2023/03/30 10:46:21;;;;;;;8.02;2.88;;;18.20;99.90;;;;;;6245764;23;20442;-83
2023/03/30 10:48:53;;;;;;;8.88;2.80;;;18.30;99.90;;;;;;6246561;23;20399;-81
2023/03/30 10:51:37;;;;;;;8.18;3.03;;;18.20;99.90;;;;;;6220567;23;20826;-83
2023/03/30 10:54:32;;;;;;;7.28;3.10;;;17.80;99.90;;;;;;6225094;23;20646;-82
2023/03/30 10:57:18;;;;;;;5.93;2.70;;;18.00;99.90;;;;;;6224414;23;20375;-84
2023/03/30 10:59:53;;;;;;;6.17;2.80;;;18.10;99.90;;;;;;6246202;23;20371;-86
2023/03/30 11:02:38;;;;;;;10.20;3.10;;;18.80;99.90;;;;;;6245040;23;20351;-84
2023/03/30 11:05:35;;;;;;;8.73;3.40;;;18.60;99.90;;;;;;6243684;23;20380;-84
2023/03/30 11:08:16;;;;;;;9.02;3.28;;;18.30;99.90;;;;;;6242774;23;20349;-83
2023/03/30 11:10:53;;;;;;;6.88;3.38;;;18.30;99.90;;;;;;6245013;23;20423;-85
2023/03/30 11:13:42;;;;;;;12.40;3.30;;;18.20;99.90;;;;;;6244999;23;20348;-84
2023/03/30 11:16:38;;;;;;;9.02;3.20;;;18.70;99.90;;;;;;6218493;23;20348;-81
2023/03/30 11:19:11;;;;;;;9.38;3.03;;;20.60;99.90;;;;;;6245207;23;20402;-82
2023/03/30 11:21:43;;;;;;;7.00;2.97;;;20.80;99.90;;;;;;6244901;23;20355;-83
2023/03/30 11:24:18;;;;;;;6.40;3.17;;;20.90;99.90;;;;;;6243730;23;20478;-82
2023/03/30 11:26:54;;;;;;;10.95;3.17;;;21.40;99.90;;;;;;6243197;23;20332;-84
2023/03/30 11:29:20;;;;;;;8.13;2.92;;;21.30;99.90;;;;;;6218211;23;20383;-81
2023/03/30 11:31:56;;;;;;;8.40;3.45;;;21.40;99.90;;;;;;6245933;23;20435;-83
2023/03/30 11:35:00;;;;;;;10.77;3.17;;;20.60;99.90;;;;;;6244010;23;20348;-82
2023/03/30 11:37:34;;;;;;;8.95;3.50;;;19.90;99.90;;;;;;6216564;23;20356;-83
2023/03/30 11:40:15;;;;;;;13.20;3.58;;;19.80;99.90;;;;;;6244331;23;20662;-84
2023/03/30 11:42:42;;;;;;;6.28;3.30;;;19.40;99.90;;;;;;6243843;23;20434;-86
2023/03/30 11:45:28;;;;;;;11.40;3.72;;;19.20;99.90;;;;;;6244018;23;20371;-84
2023/03/30 11:48:16;;;;;;;7.70;4.00;;;19.40;99.90;;;;;;6242609;23;20347;-82
2023/03/30 11:51:17;;;;;;;7.97;3.70;;;19.60;99.90;;;;;;6243393;23;20442;-86
2023/03/30 11:54:17;;;;;;;7.97;3.65;;;19.70;99.90;;;;;;6216029;23;20355;-83
2023/03/30 11:56:50;;;;;;;11.57;4.10;;;19.90;99.90;;;;;;6216172;23;20352;-85
2023/03/30 11:59:24;;;;;;;10.23;3.95;;;19.70;99.90;;;;;;6215668;23;20394;-86
2023/03/30 12:02:14;;;;;;;12.73;3.83;;;19.50;99.90;;;;;;6241256;23;20676;-83
2023/03/30 12:04:55;;;;;;;10.02;3.53;;;19.50;99.90;;;;;;6244581;23;20400;-84
2023/03/30 12:07:44;;;;;;;7.68;3.63;;;19.40;99.90;;;;;;6242898;23;20340;-82
2023/03/30 12:10:24;;;;;;;8.10;3.13;;;19.60;99.90;;;;;;6214746;23;20402;-85
2023/03/30 12:12:52;;;;;;;9.52;3.60;;;19.60;99.90;;;;;;6218102;23;20363;-83
2023/03/30 12:16:00;;;;;;;9.35;3.30;;;19.70;99.90;;;;;;6215142;23;20723;-82
2023/03/30 12:18:36;;;;;;;7.97;3.00;;;19.70;99.90;;;;;;6241234;23;20803;-83
2023/03/30 12:21:29;;;;;;;10.73;4.30;;;20.10;99.90;;;;;;6239491;23;20372;-81
2023/03/30 12:24:09;;;;;;;8.73;3.10;;;20.40;99.90;;;;;;6239182;23;20345;-82
2023/03/30 12:26:36;;;;;;;7.93;3.13;;;20.30;99.90;;;;;;6243248;23;20691;-84
2023/03/30 12:29:18;;;;;;;7.80;3.60;;;20.10;99.90;;;;;;6215846;23;20349;-84
2023/03/30 12:31:54;;;;;;;6.90;2.97;;;19.80;99.90;;;;;;6243780;23;20430;-82
2023/03/30 12:34:22;;;;;;;8.05;3.20;;;19.30;99.90;;;;;;6244582;23;21043;-83
2023/03/30 12:36:55;;;;;;;10.83;3.37;;;19.10;99.90;;;;;;6245004;23;20371;-83
2023/03/30 12:39:35;;;;;;;9.68;3.08;;;19.00;99.90;;;;;;6244986;23;20340;-83
2023/03/30 12:42:36;;;;;;;8.85;3.28;;;19.20;99.90;;;;;;6247004;23;20457;-84
2023/03/30 12:45:14;;;;;;;7.22;3.30;;;19.40;99.90;;;;;;6249282;23;20375;-84
2023/03/30 12:47:47;;;;;;;5.47;2.80;;;19.20;99.90;;;;;;6246893;23;20487;-83
2023/03/30 12:50:16;;;;;;;8.75;3.50;;;19.30;99.90;;;;;;6246957;22;20387;-83
2023/03/30 12:52:44;;;;;;;10.10;3.35;;;19.40;99.90;;;;;;6219265;23;20408;-84
2023/03/30 12:55:30;;;;;;;9.23;3.33;;;19.20;99.90;;;;;;6248952;23;20386;-82
2023/03/30 12:58:07;;;;;;;9.20;3.60;;;19.20;99.90;;;;;;6261946;23;20333;-83
2023/03/30 13:00:58;;;;;;;8.77;3.45;;;18.70;99.90;;;;;;6261913;23;20393;-83
2023/03/30 13:04:12;;;;;;;10.30;3.67;;;18.50;99.90;;;;;;6251905;23;20332;-82
2023/03/30 13:06:55;;;;;;;9.77;3.30;;;18.60;99.90;;;;;;6206460;23;20364;-86
2023/03/30 13:09:26;;;;;;;11.85;3.80;;;18.60;99.90;;;;;;6246937;23;20341;-82
2023/03/30 13:11:52;;;;;;;8.95;3.50;;;18.30;99.90;;;;;;6246818;23;20340;-85
2023/03/30 13:14:38;;;;;;;9.90;3.13;;;18.00;99.90;;;;;;6219379;23;20626;-83
2023/03/30 13:17:05;;;;;;;7.57;3.70;;;17.80;99.90;;;;;;6219128;23;20351;-84
2023/03/30 13:19:30;;;;;;;3.53;1.58;;;17.80;99.90;;;;;;6221419;23;20439;-82